createdAt,value
2022-08-03T00:05:11.481Z,25
2022-08-03T00:20:27.454Z,24.75
2022-08-03T00:35:50.791Z,24.52
2022-08-03T00:51:01.391Z,24.27
2022-08-03T01:06:18.393Z,24.03
2022-08-03T01:21:34.336Z,23.67
2022-08-03T01:36:50.294Z,23.41
2022-08-03T01:52:06.305Z,23.09
2022-08-03T02:07:23.226Z,22.76
2022-08-03T02:22:39.253Z,22.42
2022-08-03T02:23:19.065Z,22.42
2022-08-03T02:37:56.173Z,22.19
2022-08-03T02:53:13.191Z,22.11
2022-08-03T03:08:31.137Z,21.93
2022-08-03T03:23:48.103Z,21.91
2022-08-03T03:39:15.955Z,21.7
2022-08-03T03:54:20.044Z,21.64
2022-08-03T04:09:37.017Z,21.68
2022-08-03T04:24:52.982Z,21.43
2022-08-03T04:40:09.952Z,21.51
2022-08-03T04:55:44.313Z,21.11
2022-08-03T05:10:44.885Z,22.46
2022-08-03T05:26:00.853Z,23.01
2022-08-03T05:41:20.420Z,23.56
2022-08-03T05:56:33.771Z,23.82
2022-08-03T06:11:49.758Z,24.08
2022-08-03T06:27:06.695Z,24.95
2022-08-03T06:42:23.687Z,25.65
2022-08-03T06:57:40.627Z,25.91
2022-08-03T07:12:57.007Z,25.95
2022-08-03T07:28:12.560Z,27
2022-08-03T07:43:28.565Z,27.83
2022-08-03T07:58:45.492Z,28.65
2022-08-03T08:14:01.484Z,29.81
2022-08-03T08:29:18.425Z,30.11
2022-08-03T08:44:35.429Z,30.93
2022-08-03T08:59:55.728Z,31.66
2022-08-03T09:15:17.084Z,32.99
2022-08-03T09:30:33.231Z,32.99
2022-08-03T09:45:40.298Z,32.7
2022-08-03T10:00:57.360Z,33.71
2022-08-03T10:16:22.945Z,35.26
2022-08-03T10:31:31.170Z,35.55
2022-08-03T10:46:48.175Z,35.74
2022-08-03T11:02:05.147Z,36.6
2022-08-03T11:17:21.076Z,37.52
2022-08-03T11:32:37.086Z,38.01
2022-08-03T11:47:53.028Z,38.22
2022-08-03T12:03:10.070Z,38.07
2022-08-03T12:18:26.963Z,37.96
2022-08-03T12:33:43.939Z,38.27
2022-08-03T12:48:59.999Z,38.4
2022-08-03T13:04:18.404Z,39.09
2022-08-03T13:19:32.854Z,39.27
2022-08-03T13:34:48.840Z,39.75
2022-08-03T13:50:04.929Z,39.77
2022-08-03T14:05:21.779Z,40.13
2022-08-03T14:20:50.330Z,40.52
2022-08-03T14:35:55.729Z,40.2
2022-08-03T14:51:11.706Z,40.92
2022-08-03T15:06:28.682Z,40.74
2022-08-03T15:21:46.990Z,39.98
2022-08-03T15:37:00.620Z,40.04
2022-08-03T15:52:16.621Z,39.87
2022-08-03T16:07:33.568Z,40.07
2022-08-03T16:22:50.588Z,39.01
2022-08-03T16:38:10.402Z,38.94
2022-08-03T16:53:51.715Z,38.61
2022-08-03T17:08:40.502Z,38.1
2022-08-03T17:23:56.471Z,37.8
2022-08-03T17:39:12.482Z,37.7
2022-08-03T17:54:28.417Z,37.46
2022-08-03T18:10:03.526Z,36.68
2022-08-03T18:25:07.502Z,35.96
2022-08-03T18:40:20.987Z,35.48
2022-08-03T18:55:35.763Z,34.59
2022-08-03T19:11:00.585Z,34.13
2022-08-03T19:26:30.643Z,34.12
2022-08-03T19:41:24.210Z,33.59
2022-08-03T19:56:40.204Z,32.91
2022-08-03T20:11:58.147Z,32.32
2022-08-03T20:27:15.084Z,32.41
2022-08-03T20:42:32.089Z,31.86
2022-08-03T20:57:49.120Z,31.22
2022-08-03T21:13:15.880Z,30.89
2022-08-03T21:28:24.664Z,30.3
2022-08-03T21:43:36.976Z,30.02
2022-08-03T21:58:53.927Z,30.08
2022-08-03T22:14:11.909Z,29.43
2022-08-03T22:29:28.843Z,29.36
2022-08-03T22:44:44.849Z,29.07
2022-08-03T23:00:00.772Z,28.63
2022-08-03T23:15:17.778Z,28.2
2022-08-03T23:30:33.704Z,28.12
2022-08-03T23:45:49.716Z,27.98
